sensor_id;sensor_type;location;lat;lon;timestamp;P1;durP1;ratioP1;P2;durP2;ratioP2
16484;SDS011;8353;47.856;12.344;2022-08-19T00:02:41;6.75;;;6.25;;
16484;SDS011;8353;47.856;12.344;2022-08-19T00:05:28;7.18;;;6.57;;
16484;SDS011;8353;47.856;12.344;2022-08-19T00:08:15;5.43;;;5.03;;
16484;SDS011;8353;47.856;12.344;2022-08-19T00:11:03;3.50;;;3.20;;
16484;SDS011;8353;47.856;12.344;2022-08-19T00:13:50;5.53;;;5.03;;
16484;SDS011;8353;47.856;12.344;2022-08-19T00:16:38;4.25;;;3.95;;
16484;SDS011;8353;47.856;12.344;2022-08-19T00:19:26;6.90;;;6.13;;
16484;SDS011;8353;47.856;12.344;2022-08-19T00:22:13;5.90;;;5.35;;
16484;SDS011;8353;47.856;12.344;2022-08-19T00:25:01;3.90;;;3.60;;
16484;SDS011;8353;47.856;12.344;2022-08-19T00:27:49;6.70;;;6.10;;
16484;SDS011;8353;47.856;12.344;2022-08-19T00:30:36;3.58;;;3.30;;
16484;SDS011;8353;47.856;12.344;2022-08-19T00:33:23;4.68;;;4.28;;
16484;SDS011;8353;47.856;12.344;2022-08-19T00:36:10;3.45;;;3.17;;
16484;SDS011;8353;47.856;12.344;2022-08-19T00:38:57;3.88;;;3.58;;
16484;SDS011;8353;47.856;12.344;2022-08-19T00:41:44;4.88;;;4.47;;
16484;SDS011;8353;47.856;12.344;2022-08-19T00:44:35;5.28;;;4.88;;
16484;SDS011;8353;47.856;12.344;2022-08-19T00:47:21;3.05;;;2.85;;
16484;SDS011;8353;47.856;12.344;2022-08-19T00:50:09;3.20;;;3.00;;
16484;SDS011;8353;47.856;12.344;2022-08-19T00:52:58;4.63;;;4.22;;
16484;SDS011;8353;47.856;12.344;2022-08-19T00:55:46;4.07;;;3.78;;
16484;SDS011;8353;47.856;12.344;2022-08-19T00:58:36;3.35;;;3.15;;
16484;SDS011;8353;47.856;12.344;2022-08-19T01:01:24;3.42;;;3.20;;
16484;SDS011;8353;47.856;12.344;2022-08-19T01:04:11;3.50;;;3.20;;
16484;SDS011;8353;47.856;12.344;2022-08-19T01:06:58;4.93;;;4.53;;
16484;SDS011;8353;47.856;12.344;2022-08-19T01:09:45;4.90;;;4.40;;
16484;SDS011;8353;47.856;12.344;2022-08-19T01:12:32;4.95;;;4.55;;
16484;SDS011;8353;47.856;12.344;2022-08-19T01:15:21;4.47;;;4.07;;
16484;SDS011;8353;47.856;12.344;2022-08-19T01:18:13;2.88;;;2.67;;
16484;SDS011;8353;47.856;12.344;2022-08-19T01:21:04;2.97;;;2.78;;
16484;SDS011;8353;47.856;12.344;2022-08-19T01:23:55;3.53;;;3.25;;
16484;SDS011;8353;47.856;12.344;2022-08-19T01:26:42;3.25;;;2.95;;
16484;SDS011;8353;47.856;12.344;2022-08-19T01:29:30;4.25;;;3.85;;
16484;SDS011;8353;47.856;12.344;2022-08-19T01:32:20;2.88;;;2.67;;
16484;SDS011;8353;47.856;12.344;2022-08-19T01:35:07;4.18;;;3.78;;
16484;SDS011;8353;47.856;12.344;2022-08-19T01:37:55;3.97;;;3.67;;
16484;SDS011;8353;47.856;12.344;2022-08-19T01:40:44;4.50;;;4.10;;
16484;SDS011;8353;47.856;12.344;2022-08-19T01:43:31;3.45;;;3.15;;
16484;SDS011;8353;47.856;12.344;2022-08-19T01:46:18;4.80;;;4.15;;
16484;SDS011;8353;47.856;12.344;2022-08-19T01:49:06;4.28;;;3.97;;
16484;SDS011;8353;47.856;12.344;2022-08-19T01:51:53;3.17;;;2.97;;
16484;SDS011;8353;47.856;12.344;2022-08-19T01:54:40;3.83;;;3.25;;
16484;SDS011;8353;47.856;12.344;2022-08-19T01:57:28;3.58;;;3.28;;
16484;SDS011;8353;47.856;12.344;2022-08-19T02:00:18;4.15;;;3.85;;
16484;SDS011;8353;47.856;12.344;2022-08-19T02:03:08;3.70;;;3.40;;
16484;SDS011;8353;47.856;12.344;2022-08-19T02:05:56;4.47;;;3.58;;
16484;SDS011;8353;47.856;12.344;2022-08-19T02:08:45;4.70;;;4.18;;
16484;SDS011;8353;47.856;12.344;2022-08-19T02:11:33;2.88;;;2.67;;
16484;SDS011;8353;47.856;12.344;2022-08-19T02:14:23;3.90;;;3.60;;
16484;SDS011;8353;47.856;12.344;2022-08-19T02:17:09;4.28;;;3.88;;
16484;SDS011;8353;47.856;12.344;2022-08-19T02:19:56;3.83;;;3.50;;
16484;SDS011;8353;47.856;12.344;2022-08-19T02:22:43;3.40;;;3.10;;
16484;SDS011;8353;47.856;12.344;2022-08-19T02:25:30;4.40;;;2.80;;
16484;SDS011;8353;47.856;12.344;2022-08-19T02:28:17;3.33;;;3.13;;
16484;SDS011;8353;47.856;12.344;2022-08-19T02:31:09;2.90;;;2.60;;
16484;SDS011;8353;47.856;12.344;2022-08-19T02:33:56;2.63;;;2.42;;
16484;SDS011;8353;47.856;12.344;2022-08-19T02:36:43;2.50;;;2.30;;
16484;SDS011;8353;47.856;12.344;2022-08-19T02:39:30;2.15;;;1.95;;
16484;SDS011;8353;47.856;12.344;2022-08-19T02:42:16;2.33;;;2.22;;
16484;SDS011;8353;47.856;12.344;2022-08-19T02:45:03;2.40;;;2.20;;
16484;SDS011;8353;47.856;12.344;2022-08-19T02:47:52;1.90;;;1.80;;
16484;SDS011;8353;47.856;12.344;2022-08-19T02:50:39;2.10;;;1.95;;
16484;SDS011;8353;47.856;12.344;2022-08-19T02:53:27;2.15;;;2.00;;
16484;SDS011;8353;47.856;12.344;2022-08-19T02:56:14;2.15;;;1.95;;
16484;SDS011;8353;47.856;12.344;2022-08-19T02:59:01;2.28;;;2.10;;
16484;SDS011;8353;47.856;12.344;2022-08-19T03:01:56;1.95;;;1.85;;
16484;SDS011;8353;47.856;12.344;2022-08-19T03:04:44;1.73;;;1.63;;
16484;SDS011;8353;47.856;12.344;2022-08-19T03:07:31;2.00;;;1.90;;
16484;SDS011;8353;47.856;12.344;2022-08-19T03:10:18;1.42;;;1.33;;
16484;SDS011;8353;47.856;12.344;2022-08-19T03:13:05;1.90;;;1.67;;
16484;SDS011;8353;47.856;12.344;2022-08-19T03:15:52;1.85;;;1.75;;
16484;SDS011;8353;47.856;12.344;2022-08-19T03:18:39;2.00;;;1.90;;
16484;SDS011;8353;47.856;12.344;2022-08-19T03:21:29;1.73;;;1.63;;
16484;SDS011;8353;47.856;12.344;2022-08-19T03:24:18;1.67;;;1.58;;
16484;SDS011;8353;47.856;12.344;2022-08-19T03:27:05;1.80;;;1.70;;
16484;SDS011;8353;47.856;12.344;2022-08-19T03:29:52;1.85;;;1.60;;
16484;SDS011;8353;47.856;12.344;2022-08-19T03:32:39;1.80;;;1.70;;
16484;SDS011;8353;47.856;12.344;2022-08-19T03:35:26;1.88;;;1.77;;
16484;SDS011;8353;47.856;12.344;2022-08-19T03:38:14;1.83;;;1.60;;
16484;SDS011;8353;47.856;12.344;2022-08-19T03:41:05;1.50;;;1.40;;
16484;SDS011;8353;47.856;12.344;2022-08-19T03:43:53;2.55;;;1.70;;
16484;SDS011;8353;47.856;12.344;2022-08-19T03:46:40;2.90;;;2.10;;
16484;SDS011;8353;47.856;12.344;2022-08-19T03:49:28;1.92;;;1.40;;
16484;SDS011;8353;47.856;12.344;2022-08-19T03:52:17;2.40;;;2.20;;
16484;SDS011;8353;47.856;12.344;2022-08-19T03:55:07;1.60;;;1.50;;
16484;SDS011;8353;47.856;12.344;2022-08-19T03:57:54;2.58;;;2.38;;
16484;SDS011;8353;47.856;12.344;2022-08-19T04:00:41;2.40;;;2.20;;
16484;SDS011;8353;47.856;12.344;2022-08-19T04:03:28;1.60;;;1.50;;
16484;SDS011;8353;47.856;12.344;2022-08-19T04:06:15;1.48;;;1.40;;
16484;SDS011;8353;47.856;12.344;2022-08-19T04:09:07;1.83;;;1.73;;
16484;SDS011;8353;47.856;12.344;2022-08-19T04:11:57;1.30;;;1.20;;
16484;SDS011;8353;47.856;12.344;2022-08-19T04:14:43;1.38;;;1.27;;
16484;SDS011;8353;47.856;12.344;2022-08-19T04:17:30;1.30;;;1.20;;
16484;SDS011;8353;47.856;12.344;2022-08-19T04:20:18;1.50;;;1.40;;
16484;SDS011;8353;47.856;12.344;2022-08-19T04:23:05;1.52;;;1.42;;
16484;SDS011;8353;47.856;12.344;2022-08-19T04:25:51;2.08;;;1.98;;
16484;SDS011;8353;47.856;12.344;2022-08-19T04:28:40;1.38;;;1.27;;
16484;SDS011;8353;47.856;12.344;2022-08-19T04:31:27;1.30;;;1.20;;
16484;SDS011;8353;47.856;12.344;2022-08-19T04:34:17;1.38;;;1.27;;
16484;SDS011;8353;47.856;12.344;2022-08-19T04:37:07;1.40;;;1.30;;
16484;SDS011;8353;47.856;12.344;2022-08-19T04:39:56;1.90;;;1.80;;
16484;SDS011;8353;47.856;12.344;2022-08-19T04:43:00;1.30;;;1.20;;
16484;SDS011;8353;47.856;12.344;2022-08-19T04:45:49;1.60;;;1.50;;
16484;SDS011;8353;47.856;12.344;2022-08-19T04:48:36;1.75;;;1.45;;
16484;SDS011;8353;47.856;12.344;2022-08-19T04:51:24;1.45;;;1.35;;
16484;SDS011;8353;47.856;12.344;2022-08-19T04:54:14;2.17;;;2.05;;
16484;SDS011;8353;47.856;12.344;2022-08-19T04:57:03;2.30;;;1.42;;
16484;SDS011;8353;47.856;12.344;2022-08-19T04:59:53;2.38;;;2.28;;
16484;SDS011;8353;47.856;12.344;2022-08-19T05:02:41;1.50;;;1.40;;
16484;SDS011;8353;47.856;12.344;2022-08-19T05:05:28;1.50;;;1.40;;
16484;SDS011;8353;47.856;12.344;2022-08-19T05:08:17;3.00;;;1.90;;
16484;SDS011;8353;47.856;12.344;2022-08-19T05:11:07;1.58;;;1.48;;
16484;SDS011;8353;47.856;12.344;2022-08-19T05:13:56;1.50;;;1.40;;
16484;SDS011;8353;47.856;12.344;2022-08-19T05:16:43;1.48;;;1.38;;
16484;SDS011;8353;47.856;12.344;2022-08-19T05:19:31;2.13;;;1.67;;
16484;SDS011;8353;47.856;12.344;2022-08-19T05:22:35;2.22;;;2.00;;
16484;SDS011;8353;47.856;12.344;2022-08-19T05:25:22;1.40;;;1.30;;
16484;SDS011;8353;47.856;12.344;2022-08-19T05:28:10;2.60;;;2.40;;
16484;SDS011;8353;47.856;12.344;2022-08-19T05:30:57;2.10;;;2.00;;
16484;SDS011;8353;47.856;12.344;2022-08-19T05:33:44;1.70;;;1.60;;
16484;SDS011;8353;47.856;12.344;2022-08-19T05:36:34;2.22;;;2.03;;
16484;SDS011;8353;47.856;12.344;2022-08-19T05:39:25;1.92;;;1.80;;
16484;SDS011;8353;47.856;12.344;2022-08-19T05:42:13;2.70;;;2.50;;
16484;SDS011;8353;47.856;12.344;2022-08-19T05:45:00;1.52;;;1.42;;
16484;SDS011;8353;47.856;12.344;2022-08-19T05:47:46;1.77;;;1.52;;
16484;SDS011;8353;47.856;12.344;2022-08-19T05:50:35;1.60;;;1.48;;
16484;SDS011;8353;47.856;12.344;2022-08-19T05:53:23;1.85;;;1.75;;
16484;SDS011;8353;47.856;12.344;2022-08-19T05:56:12;1.40;;;1.30;;
16484;SDS011;8353;47.856;12.344;2022-08-19T05:59:01;1.42;;;1.33;;
16484;SDS011;8353;47.856;12.344;2022-08-19T06:01:49;2.10;;;1.85;;
16484;SDS011;8353;47.856;12.344;2022-08-19T06:04:39;2.63;;;2.17;;
16484;SDS011;8353;47.856;12.344;2022-08-19T06:07:27;3.55;;;2.78;;
16484;SDS011;8353;47.856;12.344;2022-08-19T06:10:16;3.05;;;2.60;;
16484;SDS011;8353;47.856;12.344;2022-08-19T06:13:02;4.00;;;2.85;;
16484;SDS011;8353;47.856;12.344;2022-08-19T06:15:50;1.73;;;1.63;;
16484;SDS011;8353;47.856;12.344;2022-08-19T06:18:37;3.78;;;2.38;;
16484;SDS011;8353;47.856;12.344;2022-08-19T06:21:25;7.32;;;4.90;;
16484;SDS011;8353;47.856;12.344;2022-08-19T06:24:17;2.60;;;2.38;;
16484;SDS011;8353;47.856;12.344;2022-08-19T06:27:09;8.02;;;5.72;;
16484;SDS011;8353;47.856;12.344;2022-08-19T06:29:56;9.70;;;6.85;;
16484;SDS011;8353;47.856;12.344;2022-08-19T06:32:42;10.07;;;7.70;;
16484;SDS011;8353;47.856;12.344;2022-08-19T06:35:29;4.20;;;3.17;;
16484;SDS011;8353;47.856;12.344;2022-08-19T06:38:17;4.65;;;3.00;;
16484;SDS011;8353;47.856;12.344;2022-08-19T06:41:05;3.50;;;3.05;;
16484;SDS011;8353;47.856;12.344;2022-08-19T06:43:54;4.78;;;2.90;;
16484;SDS011;8353;47.856;12.344;2022-08-19T06:46:41;2.83;;;2.53;;
16484;SDS011;8353;47.856;12.344;2022-08-19T06:49:28;2.30;;;2.10;;
16484;SDS011;8353;47.856;12.344;2022-08-19T06:52:17;3.25;;;2.83;;
16484;SDS011;8353;47.856;12.344;2022-08-19T06:55:05;5.78;;;3.00;;
16484;SDS011;8353;47.856;12.344;2022-08-19T06:57:53;3.08;;;2.53;;
16484;SDS011;8353;47.856;12.344;2022-08-19T07:00:41;2.72;;;2.50;;
16484;SDS011;8353;47.856;12.344;2022-08-19T07:03:29;4.13;;;2.58;;
16484;SDS011;8353;47.856;12.344;2022-08-19T07:06:19;2.92;;;2.60;;
16484;SDS011;8353;47.856;12.344;2022-08-19T07:09:06;3.17;;;2.28;;
16484;SDS011;8353;47.856;12.344;2022-08-19T07:11:56;4.10;;;2.67;;
16484;SDS011;8353;47.856;12.344;2022-08-19T07:14:43;2.80;;;2.38;;
16484;SDS011;8353;47.856;12.344;2022-08-19T07:17:32;3.00;;;2.80;;
16484;SDS011;8353;47.856;12.344;2022-08-19T07:20:20;2.88;;;2.67;;
16484;SDS011;8353;47.856;12.344;2022-08-19T07:23:07;3.50;;;2.63;;
16484;SDS011;8353;47.856;12.344;2022-08-19T07:25:54;4.35;;;2.53;;
16484;SDS011;8353;47.856;12.344;2022-08-19T07:28:42;4.97;;;2.90;;
16484;SDS011;8353;47.856;12.344;2022-08-19T07:31:29;3.88;;;2.60;;
16484;SDS011;8353;47.856;12.344;2022-08-19T07:34:18;3.08;;;2.58;;
16484;SDS011;8353;47.856;12.344;2022-08-19T07:37:05;3.85;;;2.80;;
16484;SDS011;8353;47.856;12.344;2022-08-19T07:39:52;3.03;;;2.72;;
16484;SDS011;8353;47.856;12.344;2022-08-19T07:42:39;3.95;;;2.88;;
16484;SDS011;8353;47.856;12.344;2022-08-19T07:45:27;5.07;;;3.10;;
16484;SDS011;8353;47.856;12.344;2022-08-19T07:48:14;4.82;;;2.67;;
16484;SDS011;8353;47.856;12.344;2022-08-19T07:51:03;3.50;;;3.20;;
16484;SDS011;8353;47.856;12.344;2022-08-19T07:53:53;5.07;;;2.80;;
16484;SDS011;8353;47.856;12.344;2022-08-19T07:56:40;3.70;;;2.58;;
16484;SDS011;8353;47.856;12.344;2022-08-19T07:59:27;4.60;;;3.20;;
16484;SDS011;8353;47.856;12.344;2022-08-19T08:02:14;3.90;;;3.50;;
16484;SDS011;8353;47.856;12.344;2022-08-19T08:05:01;3.65;;;3.35;;
16484;SDS011;8353;47.856;12.344;2022-08-19T08:08:07;4.35;;;3.67;;
16484;SDS011;8353;47.856;12.344;2022-08-19T08:11:17;3.92;;;3.13;;
16484;SDS011;8353;47.856;12.344;2022-08-19T08:14:06;4.57;;;2.72;;
16484;SDS011;8353;47.856;12.344;2022-08-19T08:16:53;5.30;;;2.90;;
16484;SDS011;8353;47.856;12.344;2022-08-19T08:19:41;4.05;;;3.05;;
16484;SDS011;8353;47.856;12.344;2022-08-19T08:22:29;3.60;;;2.60;;
16484;SDS011;8353;47.856;12.344;2022-08-19T08:25:34;4.18;;;2.75;;
16484;SDS011;8353;47.856;12.344;2022-08-19T08:28:22;3.70;;;2.60;;
16484;SDS011;8353;47.856;12.344;2022-08-19T08:31:10;4.63;;;2.72;;
16484;SDS011;8353;47.856;12.344;2022-08-19T08:33:57;2.88;;;2.30;;
16484;SDS011;8353;47.856;12.344;2022-08-19T08:36:44;3.08;;;2.78;;
16484;SDS011;8353;47.856;12.344;2022-08-19T08:39:32;3.05;;;2.15;;
16484;SDS011;8353;47.856;12.344;2022-08-19T08:42:22;4.22;;;3.83;;
16484;SDS011;8353;47.856;12.344;2022-08-19T08:45:14;2.97;;;2.78;;
16484;SDS011;8353;47.856;12.344;2022-08-19T08:48:07;5.00;;;3.50;;
16484;SDS011;8353;47.856;12.344;2022-08-19T08:51:00;3.08;;;2.78;;
16484;SDS011;8353;47.856;12.344;2022-08-19T08:53:51;2.90;;;2.45;;
16484;SDS011;8353;47.856;12.344;2022-08-19T08:56:39;4.72;;;4.20;;
16484;SDS011;8353;47.856;12.344;2022-08-19T08:59:30;4.40;;;2.10;;
16484;SDS011;8353;47.856;12.344;2022-08-19T09:02:20;2.25;;;1.92;;
16484;SDS011;8353;47.856;12.344;2022-08-19T09:05:07;3.13;;;2.83;;
16484;SDS011;8353;47.856;12.344;2022-08-19T09:08:00;2.40;;;2.20;;
16484;SDS011;8353;47.856;12.344;2022-08-19T09:10:51;2.13;;;1.95;;
16484;SDS011;8353;47.856;12.344;2022-08-19T09:13:41;2.42;;;2.20;;
16484;SDS011;8353;47.856;12.344;2022-08-19T09:16:36;3.42;;;2.13;;
16484;SDS011;8353;47.856;12.344;2022-08-19T09:19:25;3.10;;;2.80;;
16484;SDS011;8353;47.856;12.344;2022-08-19T09:22:12;2.47;;;2.20;;
16484;SDS011;8353;47.856;12.344;2022-08-19T09:24:59;2.47;;;2.20;;
16484;SDS011;8353;47.856;12.344;2022-08-19T09:27:46;4.28;;;3.88;;
16484;SDS011;8353;47.856;12.344;2022-08-19T09:30:33;4.45;;;2.67;;
16484;SDS011;8353;47.856;12.344;2022-08-19T09:33:28;2.88;;;2.67;;
16484;SDS011;8353;47.856;12.344;2022-08-19T09:36:16;1.80;;;1.70;;
16484;SDS011;8353;47.856;12.344;2022-08-19T09:39:05;4.40;;;3.50;;
16484;SDS011;8353;47.856;12.344;2022-08-19T09:41:52;3.10;;;2.17;;
16484;SDS011;8353;47.856;12.344;2022-08-19T09:44:42;1.75;;;1.65;;
16484;SDS011;8353;47.856;12.344;2022-08-19T09:47:29;1.92;;;1.70;;
16484;SDS011;8353;47.856;12.344;2022-08-19T09:50:19;2.33;;;2.22;;
16484;SDS011;8353;47.856;12.344;2022-08-19T09:53:05;2.78;;;2.47;;
16484;SDS011;8353;47.856;12.344;2022-08-19T09:55:54;4.20;;;3.40;;
16484;SDS011;8353;47.856;12.344;2022-08-19T09:58:41;2.72;;;2.40;;
16484;SDS011;8353;47.856;12.344;2022-08-19T10:01:29;1.95;;;1.85;;
16484;SDS011;8353;47.856;12.344;2022-08-19T10:04:17;3.30;;;3.00;;
16484;SDS011;8353;47.856;12.344;2022-08-19T10:07:06;4.43;;;4.03;;
16484;SDS011;8353;47.856;12.344;2022-08-19T10:09:52;4.30;;;3.90;;
16484;SDS011;8353;47.856;12.344;2022-08-19T10:12:39;4.13;;;3.72;;
16484;SDS011;8353;47.856;12.344;2022-08-19T10:15:26;4.18;;;3.80;;
16484;SDS011;8353;47.856;12.344;2022-08-19T10:18:13;2.38;;;2.22;;
16484;SDS011;8353;47.856;12.344;2022-08-19T10:21:05;3.65;;;3.35;;
16484;SDS011;8353;47.856;12.344;2022-08-19T10:23:56;1.90;;;1.80;;
16484;SDS011;8353;47.856;12.344;2022-08-19T10:26:44;2.55;;;2.33;;
16484;SDS011;8353;47.856;12.344;2022-08-19T10:29:33;6.45;;;4.80;;
16484;SDS011;8353;47.856;12.344;2022-08-19T10:32:20;2.50;;;2.30;;
16484;SDS011;8353;47.856;12.344;2022-08-19T10:35:08;2.15;;;1.90;;
16484;SDS011;8353;47.856;12.344;2022-08-19T10:37:55;5.40;;;5.00;;
16484;SDS011;8353;47.856;12.344;2022-08-19T10:40:45;6.15;;;5.50;;
16484;SDS011;8353;47.856;12.344;2022-08-19T10:43:32;5.50;;;5.05;;
16484;SDS011;8353;47.856;12.344;2022-08-19T10:46:21;4.50;;;4.18;;
16484;SDS011;8353;47.856;12.344;2022-08-19T10:49:10;2.83;;;2.63;;
16484;SDS011;8353;47.856;12.344;2022-08-19T10:51:57;3.78;;;3.47;;
16484;SDS011;8353;47.856;12.344;2022-08-19T10:55:03;2.17;;;2.08;;
16484;SDS011;8353;47.856;12.344;2022-08-19T10:58:13;4.40;;;4.00;;
16484;SDS011;8353;47.856;12.344;2022-08-19T11:01:01;2.55;;;2.38;;
16484;SDS011;8353;47.856;12.344;2022-08-19T11:03:48;1.90;;;1.80;;
16484;SDS011;8353;47.856;12.344;2022-08-19T11:06:35;2.42;;;2.30;;
16484;SDS011;8353;47.856;12.344;2022-08-19T11:09:24;2.40;;;2.20;;
16484;SDS011;8353;47.856;12.344;2022-08-19T11:12:11;2.55;;;2.35;;
16484;SDS011;8353;47.856;12.344;2022-08-19T11:15:01;2.92;;;2.72;;
16484;SDS011;8353;47.856;12.344;2022-08-19T11:17:48;4.10;;;3.70;;
16484;SDS011;8353;47.856;12.344;2022-08-19T11:20:37;2.78;;;2.58;;
16484;SDS011;8353;47.856;12.344;2022-08-19T11:23:24;1.90;;;1.80;;
16484;SDS011;8353;47.856;12.344;2022-08-19T11:26:10;3.35;;;3.15;;
16484;SDS011;8353;47.856;12.344;2022-08-19T11:28:57;2.45;;;2.25;;
16484;SDS011;8353;47.856;12.344;2022-08-19T11:31:47;2.90;;;2.70;;
16484;SDS011;8353;47.856;12.344;2022-08-19T11:34:35;2.15;;;2.05;;
16484;SDS011;8353;47.856;12.344;2022-08-19T11:37:22;4.60;;;4.22;;
16484;SDS011;8353;47.856;12.344;2022-08-19T11:40:10;2.30;;;2.10;;
16484;SDS011;8353;47.856;12.344;2022-08-19T11:42:57;2.60;;;2.40;;
16484;SDS011;8353;47.856;12.344;2022-08-19T11:45:44;4.50;;;4.20;;
16484;SDS011;8353;47.856;12.344;2022-08-19T11:48:35;2.55;;;2.35;;
16484;SDS011;8353;47.856;12.344;2022-08-19T11:51:23;2.20;;;2.10;;
16484;SDS011;8353;47.856;12.344;2022-08-19T11:54:11;2.40;;;2.20;;
16484;SDS011;8353;47.856;12.344;2022-08-19T11:56:59;2.35;;;2.15;;
16484;SDS011;8353;47.856;12.344;2022-08-19T11:59:48;2.30;;;2.20;;
16484;SDS011;8353;47.856;12.344;2022-08-19T12:02:35;3.65;;;3.35;;
16484;SDS011;8353;47.856;12.344;2022-08-19T12:05:23;4.70;;;4.40;;
16484;SDS011;8353;47.856;12.344;2022-08-19T12:08:10;2.00;;;1.90;;
16484;SDS011;8353;47.856;12.344;2022-08-19T12:10:57;5.10;;;4.15;;
16484;SDS011;8353;47.856;12.344;2022-08-19T12:13:46;3.15;;;2.75;;
16484;SDS011;8353;47.856;12.344;2022-08-19T12:16:33;2.53;;;2.33;;
16484;SDS011;8353;47.856;12.344;2022-08-19T12:19:20;2.67;;;2.47;;
16484;SDS011;8353;47.856;12.344;2022-08-19T12:22:08;2.00;;;1.90;;
16484;SDS011;8353;47.856;12.344;2022-08-19T12:24:55;2.83;;;2.63;;
16484;SDS011;8353;47.856;12.344;2022-08-19T12:27:43;2.42;;;2.30;;
16484;SDS011;8353;47.856;12.344;2022-08-19T12:30:30;2.13;;;2.03;;
16484;SDS011;8353;47.856;12.344;2022-08-19T12:33:17;3.10;;;2.80;;
16484;SDS011;8353;47.856;12.344;2022-08-19T12:36:05;3.72;;;3.42;;
16484;SDS011;8353;47.856;12.344;2022-08-19T12:38:57;2.95;;;2.75;;
16484;SDS011;8353;47.856;12.344;2022-08-19T12:41:44;4.47;;;4.13;;
16484;SDS011;8353;47.856;12.344;2022-08-19T12:44:31;3.20;;;2.92;;
16484;SDS011;8353;47.856;12.344;2022-08-19T12:47:18;3.88;;;3.53;;
16484;SDS011;8353;47.856;12.344;2022-08-19T12:50:05;4.65;;;4.25;;
16484;SDS011;8353;47.856;12.344;2022-08-19T12:52:53;4.72;;;4.32;;
16484;SDS011;8353;47.856;12.344;2022-08-19T12:55:41;2.92;;;2.60;;
16484;SDS011;8353;47.856;12.344;2022-08-19T12:58:29;4.07;;;3.78;;
16484;SDS011;8353;47.856;12.344;2022-08-19T13:01:17;5.32;;;4.93;;
16484;SDS011;8353;47.856;12.344;2022-08-19T13:04:04;3.97;;;3.67;;
16484;SDS011;8353;47.856;12.344;2022-08-19T13:06:51;2.67;;;2.47;;
16484;SDS011;8353;47.856;12.344;2022-08-19T13:09:38;3.67;;;3.38;;
16484;SDS011;8353;47.856;12.344;2022-08-19T13:12:27;3.63;;;3.38;;
16484;SDS011;8353;47.856;12.344;2022-08-19T13:15:14;5.18;;;4.78;;
16484;SDS011;8353;47.856;12.344;2022-08-19T13:18:05;4.20;;;3.90;;
16484;SDS011;8353;47.856;12.344;2022-08-19T13:20:53;3.65;;;3.35;;
16484;SDS011;8353;47.856;12.344;2022-08-19T13:23:41;3.05;;;2.85;;
16484;SDS011;8353;47.856;12.344;2022-08-19T13:26:29;3.10;;;2.90;;
16484;SDS011;8353;47.856;12.344;2022-08-19T13:29:17;3.30;;;3.00;;
16484;SDS011;8353;47.856;12.344;2022-08-19T13:32:21;3.78;;;3.55;;
16484;SDS011;8353;47.856;12.344;2022-08-19T13:35:26;3.42;;;3.15;;
16484;SDS011;8353;47.856;12.344;2022-08-19T13:38:13;3.00;;;2.80;;
16484;SDS011;8353;47.856;12.344;2022-08-19T13:41:04;4.90;;;4.50;;
16484;SDS011;8353;47.856;12.344;2022-08-19T13:43:52;5.70;;;4.82;;
16484;SDS011;8353;47.856;12.344;2022-08-19T13:46:40;2.78;;;2.58;;
16484;SDS011;8353;47.856;12.344;2022-08-19T13:49:30;3.53;;;3.22;;
16484;SDS011;8353;47.856;12.344;2022-08-19T13:52:17;3.55;;;3.22;;
16484;SDS011;8353;47.856;12.344;2022-08-19T13:55:04;2.95;;;2.75;;
16484;SDS011;8353;47.856;12.344;2022-08-19T13:57:51;3.38;;;3.10;;
16484;SDS011;8353;47.856;12.344;2022-08-19T14:00:40;3.25;;;3.05;;
16484;SDS011;8353;47.856;12.344;2022-08-19T14:03:30;3.20;;;3.00;;
16484;SDS011;8353;47.856;12.344;2022-08-19T14:06:17;3.47;;;3.28;;
16484;SDS011;8353;47.856;12.344;2022-08-19T14:09:04;4.97;;;4.57;;
16484;SDS011;8353;47.856;12.344;2022-08-19T14:11:52;3.47;;;3.17;;
16484;SDS011;8353;47.856;12.344;2022-08-19T14:14:40;3.60;;;3.35;;
16484;SDS011;8353;47.856;12.344;2022-08-19T14:17:27;3.80;;;3.50;;
16484;SDS011;8353;47.856;12.344;2022-08-19T14:20:15;5.28;;;4.88;;
16484;SDS011;8353;47.856;12.344;2022-08-19T14:23:03;3.45;;;3.20;;
16484;SDS011;8353;47.856;12.344;2022-08-19T14:25:51;4.38;;;4.07;;
16484;SDS011;8353;47.856;12.344;2022-08-19T14:28:41;4.78;;;4.38;;
16484;SDS011;8353;47.856;12.344;2022-08-19T14:31:29;5.72;;;5.22;;
16484;SDS011;8353;47.856;12.344;2022-08-19T14:34:16;4.20;;;3.90;;
16484;SDS011;8353;47.856;12.344;2022-08-19T14:37:04;4.38;;;3.85;;
16484;SDS011;8353;47.856;12.344;2022-08-19T14:39:51;8.15;;;7.45;;
16484;SDS011;8353;47.856;12.344;2022-08-19T14:42:38;8.07;;;7.38;;
16484;SDS011;8353;47.856;12.344;2022-08-19T14:45:26;6.90;;;6.30;;
16484;SDS011;8353;47.856;12.344;2022-08-19T14:48:13;7.20;;;6.55;;
16484;SDS011;8353;47.856;12.344;2022-08-19T14:51:00;8.90;;;8.00;;
16484;SDS011;8353;47.856;12.344;2022-08-19T14:53:49;7.38;;;6.63;;
16484;SDS011;8353;47.856;12.344;2022-08-19T14:56:36;5.03;;;4.57;;
16484;SDS011;8353;47.856;12.344;2022-08-19T14:59:25;3.78;;;3.47;;
16484;SDS011;8353;47.856;12.344;2022-08-19T15:02:12;10.88;;;9.25;;
16484;SDS011;8353;47.856;12.344;2022-08-19T15:04:59;10.23;;;9.23;;
16484;SDS011;8353;47.856;12.344;2022-08-19T15:07:46;8.00;;;6.28;;
16484;SDS011;8353;47.856;12.344;2022-08-19T15:10:34;8.80;;;7.90;;
16484;SDS011;8353;47.856;12.344;2022-08-19T15:13:21;5.05;;;4.45;;
16484;SDS011;8353;47.856;12.344;2022-08-19T15:16:09;10.70;;;8.35;;
16484;SDS011;8353;47.856;12.344;2022-08-19T15:18:57;8.63;;;7.63;;
16484;SDS011;8353;47.856;12.344;2022-08-19T15:21:45;5.18;;;4.30;;
16484;SDS011;8353;47.856;12.344;2022-08-19T15:24:32;4.90;;;3.25;;
16484;SDS011;8353;47.856;12.344;2022-08-19T15:27:21;4.88;;;4.47;;
16484;SDS011;8353;47.856;12.344;2022-08-19T15:30:09;3.47;;;3.17;;
16484;SDS011;8353;47.856;12.344;2022-08-19T15:32:57;3.28;;;2.95;;
16484;SDS011;8353;47.856;12.344;2022-08-19T15:35:44;3.30;;;3.00;;
16484;SDS011;8353;47.856;12.344;2022-08-19T15:38:31;3.38;;;3.00;;
16484;SDS011;8353;47.856;12.344;2022-08-19T15:41:20;3.75;;;3.25;;
16484;SDS011;8353;47.856;12.344;2022-08-19T15:44:12;3.55;;;3.10;;
16484;SDS011;8353;47.856;12.344;2022-08-19T15:47:00;3.13;;;2.78;;
16484;SDS011;8353;47.856;12.344;2022-08-19T15:49:47;2.55;;;2.35;;
16484;SDS011;8353;47.856;12.344;2022-08-19T15:52:33;1.80;;;1.70;;
16484;SDS011;8353;47.856;12.344;2022-08-19T15:55:22;2.53;;;1.80;;
16484;SDS011;8353;47.856;12.344;2022-08-19T15:58:12;2.90;;;2.15;;
16484;SDS011;8353;47.856;12.344;2022-08-19T16:01:33;1.60;;;1.50;;
16484;SDS011;8353;47.856;12.344;2022-08-19T16:04:37;1.70;;;1.42;;
16484;SDS011;8353;47.856;12.344;2022-08-19T16:07:42;2.25;;;1.80;;
16484;SDS011;8353;47.856;12.344;2022-08-19T16:10:29;2.40;;;2.20;;
16484;SDS011;8353;47.856;12.344;2022-08-19T16:13:16;1.40;;;1.30;;
16484;SDS011;8353;47.856;12.344;2022-08-19T16:16:03;3.13;;;1.50;;
16484;SDS011;8353;47.856;12.344;2022-08-19T16:18:51;2.70;;;2.10;;
16484;SDS011;8353;47.856;12.344;2022-08-19T16:21:38;1.85;;;1.40;;
16484;SDS011;8353;47.856;12.344;2022-08-19T16:24:26;2.70;;;2.45;;
16484;SDS011;8353;47.856;12.344;2022-08-19T16:27:13;1.40;;;1.30;;
16484;SDS011;8353;47.856;12.344;2022-08-19T16:30:00;4.15;;;2.70;;
16484;SDS011;8353;47.856;12.344;2022-08-19T16:32:48;3.45;;;1.67;;
16484;SDS011;8353;47.856;12.344;2022-08-19T16:35:36;1.50;;;1.40;;
16484;SDS011;8353;47.856;12.344;2022-08-19T16:38:23;2.05;;;1.85;;
16484;SDS011;8353;47.856;12.344;2022-08-19T16:41:10;2.25;;;1.60;;
16484;SDS011;8353;47.856;12.344;2022-08-19T16:43:58;1.90;;;1.70;;
16484;SDS011;8353;47.856;12.344;2022-08-19T16:46:45;2.03;;;1.80;;
16484;SDS011;8353;47.856;12.344;2022-08-19T16:49:32;2.45;;;1.45;;
16484;SDS011;8353;47.856;12.344;2022-08-19T16:52:20;1.38;;;1.20;;
16484;SDS011;8353;47.856;12.344;2022-08-19T16:55:11;1.25;;;1.15;;
16484;SDS011;8353;47.856;12.344;2022-08-19T16:57:58;2.72;;;1.30;;